Más de esta sección

METAR - AERONAUTICA

METAR
METAR MDPP 030200Z 12008KT 9999 BKN018 26/24 Q1016=
METAR MDST 030200Z 13006KT 9999 FEW018CB SCT018 25/23 Q1016
CB/S/SE/SW=
METAR MDPC 030200Z 13011KT 9999 FEW015CB BKN016 BKN070 27/23 Q1016 CB/SE/S/SW=
METAR MDJB 030200Z 00000KT 6000 RA FEW010CB BKN012 22/21 Q1015 CB/NE/E/S/N=
METAR MDSD 030200Z 12010KT 9999 TS FEW016CB BKN018 25/24 Q1016 CB/SE/S/SW/W=
METAR MDLR 030200Z 06006KT 9999 FEW016CB SCT016 BKN070 25/24 Q1014 CB/E/SE/SW=